sensor_id;sensor_type;location;lat;lon;timestamp;pressure;altitude;pressure_sealevel;temperature;humidity
79413;BME280;68863;49.528;11.010;2024-02-23T00:00:15;96025.47;;;12.07;53.58
79413;BME280;68863;49.528;11.010;2024-02-23T00:01:18;96030.91;;;12.28;52.94
79413;BME280;68863;49.528;11.010;2024-02-23T00:02:18;96029.06;;;12.37;53.06
79413;BME280;68863;49.528;11.010;2024-02-23T00:03:19;96026.06;;;12.40;52.49
79413;BME280;68863;49.528;11.010;2024-02-23T00:04:19;96024.16;;;12.02;52.69
79413;BME280;68863;49.528;11.010;2024-02-23T00:05:19;96036.09;;;12.44;52.41
79413;BME280;68863;49.528;11.010;2024-02-23T00:06:20;96041.81;;;12.25;52.27
79413;BME280;68863;49.528;11.010;2024-02-23T00:07:20;96042.03;;;12.38;52.43
79413;BME280;68863;49.528;11.010;2024-02-23T00:08:21;96035.34;;;12.27;51.94
79413;BME280;68863;49.528;11.010;2024-02-23T00:09:21;96056.59;;;11.95;51.99
79413;BME280;68863;49.528;11.010;2024-02-23T00:10:21;96047.25;;;11.84;51.72
79413;BME280;68863;49.528;11.010;2024-02-23T00:11:22;96068.47;;;11.74;51.58
79413;BME280;68863;49.528;11.010;2024-02-23T00:12:22;96055.16;;;11.84;51.20
79413;BME280;68863;49.528;11.010;2024-02-23T00:13:23;96055.28;;;11.83;51.71
79413;BME280;68863;49.528;11.010;2024-02-23T00:14:23;96049.69;;;11.86;51.63
79413;BME280;68863;49.528;11.010;2024-02-23T00:15:23;96061.19;;;11.93;51.49
79413;BME280;68863;49.528;11.010;2024-02-23T00:16:25;96051.31;;;11.95;51.17
79413;BME280;68863;49.528;11.010;2024-02-23T00:17:26;96060.66;;;11.97;51.10
79413;BME280;68863;49.528;11.010;2024-02-23T00:18:27;96060.03;;;11.95;50.77
79413;BME280;68863;49.528;11.010;2024-02-23T00:19:27;96051.63;;;12.00;51.29
79413;BME280;68863;49.528;11.010;2024-02-23T00:20:27;96058.25;;;11.88;50.65
79413;BME280;68863;49.528;11.010;2024-02-23T00:21:28;96066.66;;;11.75;51.09
79413;BME280;68863;49.528;11.010;2024-02-23T00:22:28;96064.38;;;11.72;52.01
79413;BME280;68863;49.528;11.010;2024-02-23T00:23:28;96080.63;;;11.84;51.02
79413;BME280;68863;49.528;11.010;2024-02-23T00:24:29;96063.22;;;11.74;50.84
79413;BME280;68863;49.528;11.010;2024-02-23T00:25:29;96061.06;;;11.78;51.85
79413;BME280;68863;49.528;11.010;2024-02-23T00:26:30;96070.59;;;11.79;50.82
79413;BME280;68863;49.528;11.010;2024-02-23T00:27:30;96065.00;;;11.74;50.99
79413;BME280;68863;49.528;11.010;2024-02-23T00:28:30;96062.41;;;11.66;51.07
79413;BME280;68863;49.528;11.010;2024-02-23T00:29:31;96054.84;;;11.71;50.86
79413;BME280;68863;49.528;11.010;2024-02-23T00:30:31;96058.69;;;11.99;50.69
79413;BME280;68863;49.528;11.010;2024-02-23T00:31:31;96057.34;;;12.04;51.13
79413;BME280;68863;49.528;11.010;2024-02-23T00:32:32;96066.53;;;12.08;50.73
79413;BME280;68863;49.528;11.010;2024-02-23T00:33:32;96081.09;;;11.87;50.60
79413;BME280;68863;49.528;11.010;2024-02-23T00:34:33;96082.56;;;11.90;51.08
79413;BME280;68863;49.528;11.010;2024-02-23T00:35:34;96092.25;;;11.81;51.15
79413;BME280;68863;49.528;11.010;2024-02-23T00:36:34;96096.13;;;12.10;50.34
79413;BME280;68863;49.528;11.010;2024-02-23T00:37:34;96115.28;;;11.87;50.41
79413;BME280;68863;49.528;11.010;2024-02-23T00:38:35;96112.19;;;11.67;51.21
79413;BME280;68863;49.528;11.010;2024-02-23T00:39:36;96118.94;;;11.53;51.17
79413;BME280;68863;49.528;11.010;2024-02-23T00:40:37;96123.56;;;11.51;50.94
79413;BME280;68863;49.528;11.010;2024-02-23T00:41:41;96146.06;;;11.46;50.74
79413;BME280;68863;49.528;11.010;2024-02-23T00:42:41;96149.53;;;11.22;50.48
79413;BME280;68863;49.528;11.010;2024-02-23T00:43:41;96141.97;;;11.35;50.54
79413;BME280;68863;49.528;11.010;2024-02-23T00:44:42;96161.34;;;11.26;50.86
79413;BME280;68863;49.528;11.010;2024-02-23T00:45:42;96160.84;;;11.06;51.13
79413;BME280;68863;49.528;11.010;2024-02-23T00:46:43;96155.28;;;11.25;50.38
79413;BME280;68863;49.528;11.010;2024-02-23T00:47:43;96155.94;;;11.36;50.79
79413;BME280;68863;49.528;11.010;2024-02-23T00:48:43;96162.63;;;11.38;50.87
79413;BME280;68863;49.528;11.010;2024-02-23T00:49:44;96180.88;;;11.07;50.95
79413;BME280;68863;49.528;11.010;2024-02-23T00:50:44;96174.66;;;11.00;51.53
79413;BME280;68863;49.528;11.010;2024-02-23T00:51:44;96196.31;;;11.18;50.74
79413;BME280;68863;49.528;11.010;2024-02-23T00:52:45;96176.91;;;11.03;50.53
79413;BME280;68863;49.528;11.010;2024-02-23T00:53:45;96189.03;;;10.88;51.35
79413;BME280;68863;49.528;11.010;2024-02-23T00:54:46;96189.03;;;10.88;51.44
79413;BME280;68863;49.528;11.010;2024-02-23T00:55:46;96181.97;;;10.80;51.03
79413;BME280;68863;49.528;11.010;2024-02-23T00:56:46;96188.41;;;10.94;51.17
79413;BME280;68863;49.528;11.010;2024-02-23T00:57:47;96180.34;;;10.87;50.26
79413;BME280;68863;49.528;11.010;2024-02-23T00:58:47;96180.03;;;10.82;50.97
79413;BME280;68863;49.528;11.010;2024-02-23T00:59:47;96162.28;;;10.76;51.24
79413;BME280;68863;49.528;11.010;2024-02-23T01:00:48;96182.63;;;10.74;51.65
79413;BME280;68863;49.528;11.010;2024-02-23T01:01:48;96159.84;;;10.91;50.84
79413;BME280;68863;49.528;11.010;2024-02-23T01:02:48;96162.47;;;11.07;50.31
79413;BME280;68863;49.528;11.010;2024-02-23T01:03:49;96163.31;;;11.16;50.97
79413;BME280;68863;49.528;11.010;2024-02-23T01:04:49;96177.75;;;11.03;50.50
79413;BME280;68863;49.528;11.010;2024-02-23T01:05:50;96171.84;;;10.85;50.48
79413;BME280;68863;49.528;11.010;2024-02-23T01:06:50;96166.09;;;10.82;50.74
79413;BME280;68863;49.528;11.010;2024-02-23T01:07:50;96169.53;;;11.23;50.30
79413;BME280;68863;49.528;11.010;2024-02-23T01:08:51;96179.53;;;10.87;50.73
79413;BME280;68863;49.528;11.010;2024-02-23T01:09:51;96179.84;;;10.92;51.22
79413;BME280;68863;49.528;11.010;2024-02-23T01:10:51;96186.47;;;11.20;50.72
79413;BME280;68863;49.528;11.010;2024-02-23T01:11:52;96185.47;;;10.89;50.89
79413;BME280;68863;49.528;11.010;2024-02-23T01:12:52;96203.03;;;10.96;50.48
79413;BME280;68863;49.528;11.010;2024-02-23T01:13:53;96200.72;;;10.93;51.04
79413;BME280;68863;49.528;11.010;2024-02-23T01:14:53;96214.44;;;10.71;51.19
79413;BME280;68863;49.528;11.010;2024-02-23T01:15:53;96208.56;;;10.69;50.96
79413;BME280;68863;49.528;11.010;2024-02-23T01:16:54;96202.94;;;10.64;50.88
79413;BME280;68863;49.528;11.010;2024-02-23T01:17:54;96216.63;;;10.92;51.22
79413;BME280;68863;49.528;11.010;2024-02-23T01:18:56;96236.59;;;10.76;50.98
79413;BME280;68863;49.528;11.010;2024-02-23T01:19:56;96210.78;;;10.55;51.36
79413;BME280;68863;49.528;11.010;2024-02-23T01:20:57;96218.56;;;10.82;51.29
79413;BME280;68863;49.528;11.010;2024-02-23T01:21:57;96201.53;;;11.02;50.71
79413;BME280;68863;49.528;11.010;2024-02-23T01:23:01;96209.09;;;10.89;50.69
79413;BME280;68863;49.528;11.010;2024-02-23T01:24:01;96216.44;;;10.77;51.16
79413;BME280;68863;49.528;11.010;2024-02-23T01:25:01;96211.59;;;10.56;51.43
79413;BME280;68863;49.528;11.010;2024-02-23T01:26:02;96209.34;;;10.61;50.96
79413;BME280;68863;49.528;11.010;2024-02-23T01:27:03;96209.63;;;10.50;51.46
79413;BME280;68863;49.528;11.010;2024-02-23T01:28:04;96208.19;;;10.72;51.06
79413;BME280;68863;49.528;11.010;2024-02-23T01:29:04;96213.88;;;10.51;51.54
79413;BME280;68863;49.528;11.010;2024-02-23T01:30:05;96223.00;;;10.30;51.71
79413;BME280;68863;49.528;11.010;2024-02-23T01:31:08;96216.56;;;10.67;51.42
79413;BME280;68863;49.528;11.010;2024-02-23T01:32:10;96212.63;;;10.63;51.26
79413;BME280;68863;49.528;11.010;2024-02-23T01:33:11;96217.34;;;10.60;51.60
79413;BME280;68863;49.528;11.010;2024-02-23T01:34:11;96222.75;;;10.50;51.74
79413;BME280;68863;49.528;11.010;2024-02-23T01:35:12;96210.94;;;10.46;51.97
79413;BME280;68863;49.528;11.010;2024-02-23T01:36:12;96215.28;;;10.29;51.98
79413;BME280;68863;49.528;11.010;2024-02-23T01:37:12;96217.53;;;10.24;52.41
79413;BME280;68863;49.528;11.010;2024-02-23T01:38:13;96212.09;;;10.51;51.36
79413;BME280;68863;49.528;11.010;2024-02-23T01:39:19;96224.47;;;10.33;51.38
79413;BME280;68863;49.528;11.010;2024-02-23T01:40:19;96222.41;;;10.53;51.10
79413;BME280;68863;49.528;11.010;2024-02-23T01:41:19;96229.47;;;10.18;51.97
79413;BME280;68863;49.528;11.010;2024-02-23T01:42:20;96226.69;;;10.20;51.92
79413;BME280;68863;49.528;11.010;2024-02-23T01:43:20;96231.56;;;10.49;51.23
79413;BME280;68863;49.528;11.010;2024-02-23T01:44:21;96231.97;;;10.62;51.05
79413;BME280;68863;49.528;11.010;2024-02-23T01:45:21;96233.31;;;10.32;52.01
79413;BME280;68863;49.528;11.010;2024-02-23T01:46:22;96224.47;;;10.33;51.42
79413;BME280;68863;49.528;11.010;2024-02-23T01:47:26;96233.97;;;10.26;51.44
79413;BME280;68863;49.528;11.010;2024-02-23T01:48:27;96237.25;;;10.28;51.88
79413;BME280;68863;49.528;11.010;2024-02-23T01:49:28;96229.81;;;10.49;51.74
79413;BME280;68863;49.528;11.010;2024-02-23T01:50:34;96238.34;;;10.60;51.14
79413;BME280;68863;49.528;11.010;2024-02-23T01:51:35;96234.06;;;10.50;51.29
79413;BME280;68863;49.528;11.010;2024-02-23T01:52:36;96242.50;;;10.36;51.49
79413;BME280;68863;49.528;11.010;2024-02-23T01:53:37;96242.69;;;10.35;51.55
79413;BME280;68863;49.528;11.010;2024-02-23T01:54:37;96242.09;;;10.23;52.15
79413;BME280;68863;49.528;11.010;2024-02-23T01:55:40;96241.34;;;10.30;52.33
79413;BME280;68863;49.528;11.010;2024-02-23T01:56:41;96237.47;;;10.17;51.85
79413;BME280;68863;49.528;11.010;2024-02-23T01:57:42;96235.63;;;10.35;52.38
79413;BME280;68863;49.528;11.010;2024-02-23T01:58:43;96243.00;;;10.32;52.10
79413;BME280;68863;49.528;11.010;2024-02-23T01:59:44;96253.97;;;10.27;52.21
79413;BME280;68863;49.528;11.010;2024-02-23T02:00:45;96259.44;;;10.16;52.51
79413;BME280;68863;49.528;11.010;2024-02-23T02:01:45;96255.59;;;10.28;52.47
79413;BME280;68863;49.528;11.010;2024-02-23T02:02:48;96247.81;;;10.18;52.67
79413;BME280;68863;49.528;11.010;2024-02-23T02:03:48;96249.22;;;10.30;52.51
79413;BME280;68863;49.528;11.010;2024-02-23T02:04:48;96248.41;;;10.30;51.90
79413;BME280;68863;49.528;11.010;2024-02-23T02:05:49;96255.66;;;10.44;52.34
79413;BME280;68863;49.528;11.010;2024-02-23T02:06:51;96262.63;;;10.01;52.57
79413;BME280;68863;49.528;11.010;2024-02-23T02:07:53;96261.03;;;10.09;52.82
79413;BME280;68863;49.528;11.010;2024-02-23T02:08:58;96270.94;;;10.23;52.88
79413;BME280;68863;49.528;11.010;2024-02-23T02:09:59;96266.53;;;9.97;53.14
79413;BME280;68863;49.528;11.010;2024-02-23T02:11:00;96273.34;;;9.90;53.01
79413;BME280;68863;49.528;11.010;2024-02-23T02:12:00;96259.34;;;9.99;53.10
79413;BME280;68863;49.528;11.010;2024-02-23T02:13:04;96255.06;;;9.98;53.43
79413;BME280;68863;49.528;11.010;2024-02-23T02:14:05;96261.34;;;10.05;52.88
79413;BME280;68863;49.528;11.010;2024-02-23T02:15:06;96251.47;;;9.99;52.94
79413;BME280;68863;49.528;11.010;2024-02-23T02:16:06;96264.88;;;9.96;52.95
79413;BME280;68863;49.528;11.010;2024-02-23T02:17:07;96254.28;;;10.06;52.94
79413;BME280;68863;49.528;11.010;2024-02-23T02:18:07;96254.09;;;10.25;52.74
79413;BME280;68863;49.528;11.010;2024-02-23T02:19:08;96252.31;;;10.00;52.79
79413;BME280;68863;49.528;11.010;2024-02-23T02:20:12;96267.25;;;10.07;52.58
79413;BME280;68863;49.528;11.010;2024-02-23T02:21:13;96267.22;;;9.99;53.06
79413;BME280;68863;49.528;11.010;2024-02-23T02:22:14;96270.44;;;9.93;53.08
79413;BME280;68863;49.528;11.010;2024-02-23T02:23:14;96275.72;;;10.01;52.86
79413;BME280;68863;49.528;11.010;2024-02-23T02:24:14;96262.38;;;10.13;52.86
79413;BME280;68863;49.528;11.010;2024-02-23T02:25:15;96282.00;;;10.09;52.83
79413;BME280;68863;49.528;11.010;2024-02-23T02:26:18;96273.16;;;10.10;52.89
79413;BME280;68863;49.528;11.010;2024-02-23T02:27:19;96279.34;;;10.00;52.86
79413;BME280;68863;49.528;11.010;2024-02-23T02:28:20;96284.88;;;9.97;52.64
79413;BME280;68863;49.528;11.010;2024-02-23T02:29:20;96296.50;;;9.95;52.98
79413;BME280;68863;49.528;11.010;2024-02-23T02:30:21;96287.47;;;10.15;52.29
79413;BME280;68863;49.528;11.010;2024-02-23T02:31:21;96291.00;;;10.06;51.95
79413;BME280;68863;49.528;11.010;2024-02-23T02:32:22;96293.19;;;10.11;52.42
79413;BME280;68863;49.528;11.010;2024-02-23T02:33:23;96295.09;;;10.26;52.19
79413;BME280;68863;49.528;11.010;2024-02-23T02:34:23;96297.38;;;10.03;52.22
79413;BME280;68863;49.528;11.010;2024-02-23T02:35:24;96308.06;;;10.10;52.41
79413;BME280;68863;49.528;11.010;2024-02-23T02:36:24;96305.06;;;10.05;52.48
79413;BME280;68863;49.528;11.010;2024-02-23T02:37:24;96303.78;;;9.83;52.89
79413;BME280;68863;49.528;11.010;2024-02-23T02:38:25;96313.94;;;9.86;52.33
79413;BME280;68863;49.528;11.010;2024-02-23T02:39:25;96314.41;;;9.81;52.75
79413;BME280;68863;49.528;11.010;2024-02-23T02:40:26;96312.78;;;9.63;52.81
79413;BME280;68863;49.528;11.010;2024-02-23T02:41:28;96307.00;;;9.95;51.93
79413;BME280;68863;49.528;11.010;2024-02-23T02:42:30;96323.56;;;9.77;52.19
79413;BME280;68863;49.528;11.010;2024-02-23T02:43:31;96322.53;;;9.52;52.57
79413;BME280;68863;49.528;11.010;2024-02-23T02:44:32;96323.34;;;9.53;52.32
79413;BME280;68863;49.528;11.010;2024-02-23T02:45:32;96320.50;;;9.64;52.02
79413;BME280;68863;49.528;11.010;2024-02-23T02:46:33;96321.69;;;9.88;52.21
79413;BME280;68863;49.528;11.010;2024-02-23T02:47:33;96316.38;;;10.05;51.61
79413;BME280;68863;49.528;11.010;2024-02-23T02:48:33;96323.09;;;9.82;51.81
79413;BME280;68863;49.528;11.010;2024-02-23T02:49:34;96325.63;;;9.92;51.45
79413;BME280;68863;49.528;11.010;2024-02-23T02:50:34;96326.41;;;9.66;51.55
79413;BME280;68863;49.528;11.010;2024-02-23T02:51:35;96347.22;;;9.68;51.92
79413;BME280;68863;49.528;11.010;2024-02-23T02:52:36;96342.81;;;9.50;51.90
79413;BME280;68863;49.528;11.010;2024-02-23T02:53:36;96335.78;;;9.69;51.96
79413;BME280;68863;49.528;11.010;2024-02-23T02:54:36;96339.28;;;9.77;51.27
79413;BME280;68863;49.528;11.010;2024-02-23T02:55:41;96334.97;;;9.94;51.38
79413;BME280;68863;49.528;11.010;2024-02-23T02:56:43;96330.94;;;9.82;50.59
79413;BME280;68863;49.528;11.010;2024-02-23T02:57:44;96332.47;;;9.85;50.83
79413;BME280;68863;49.528;11.010;2024-02-23T02:58:45;96328.31;;;10.00;50.24
79413;BME280;68863;49.528;11.010;2024-02-23T02:59:45;96335.53;;;9.80;50.74
79413;BME280;68863;49.528;11.010;2024-02-23T03:00:46;96350.22;;;9.73;51.18
79413;BME280;68863;49.528;11.010;2024-02-23T03:01:46;96337.13;;;9.73;51.03
79413;BME280;68863;49.528;11.010;2024-02-23T03:02:49;96340.84;;;9.70;51.41
79413;BME280;68863;49.528;11.010;2024-02-23T03:03:50;96343.34;;;9.72;51.16
79413;BME280;68863;49.528;11.010;2024-02-23T03:04:50;96343.41;;;9.80;50.92
79413;BME280;68863;49.528;11.010;2024-02-23T03:05:51;96342.25;;;10.00;50.99
79413;BME280;68863;49.528;11.010;2024-02-23T03:06:51;96353.06;;;9.62;51.08
79413;BME280;68863;49.528;11.010;2024-02-23T03:07:51;96346.84;;;9.63;50.72
79413;BME280;68863;49.528;11.010;2024-02-23T03:08:52;96335.91;;;9.67;50.89
79413;BME280;68863;49.528;11.010;2024-02-23T03:09:52;96341.44;;;9.46;51.86
79413;BME280;68863;49.528;11.010;2024-02-23T03:10:53;96344.16;;;9.72;51.30
79413;BME280;68863;49.528;11.010;2024-02-23T03:11:53;96350.72;;;9.58;50.97
79413;BME280;68863;49.528;11.010;2024-02-23T03:12:54;96348.78;;;9.78;51.04
79413;BME280;68863;49.528;11.010;2024-02-23T03:13:54;96341.66;;;9.71;50.94
79413;BME280;68863;49.528;11.010;2024-02-23T03:14:54;96359.19;;;9.52;50.72
79413;BME280;68863;49.528;11.010;2024-02-23T03:15:56;96351.47;;;9.51;51.20
79413;BME280;68863;49.528;11.010;2024-02-23T03:16:56;96340.63;;;9.46;51.26
79413;BME280;68863;49.528;11.010;2024-02-23T03:17:56;96357.53;;;9.51;51.21
79413;BME280;68863;49.528;11.010;2024-02-23T03:18:57;96349.47;;;9.45;51.06
79413;BME280;68863;49.528;11.010;2024-02-23T03:19:58;96350.72;;;9.58;50.73
79413;BME280;68863;49.528;11.010;2024-02-23T03:20:59;96358.06;;;9.37;51.70
79413;BME280;68863;49.528;11.010;2024-02-23T03:21:59;96345.72;;;9.47;51.21
79413;BME280;68863;49.528;11.010;2024-02-23T03:23:00;96352.31;;;9.33;51.15
79413;BME280;68863;49.528;11.010;2024-02-23T03:24:01;96354.25;;;9.49;51.40
79413;BME280;68863;49.528;11.010;2024-02-23T03:25:02;96350.75;;;9.41;51.42
79413;BME280;68863;49.528;11.010;2024-02-23T03:26:08;96354.09;;;9.69;50.97
79413;BME280;68863;49.528;11.010;2024-02-23T03:27:09;96346.25;;;9.33;50.90
79413;BME280;68863;49.528;11.010;2024-02-23T03:28:09;96355.50;;;9.63;50.99
79413;BME280;68863;49.528;11.010;2024-02-23T03:29:10;96370.56;;;9.43;51.07
79413;BME280;68863;49.528;11.010;2024-02-23T03:30:10;96359.91;;;9.27;51.11
79413;BME280;68863;49.528;11.010;2024-02-23T03:31:11;96355.38;;;9.47;50.70
79413;BME280;68863;49.528;11.010;2024-02-23T03:32:11;96354.78;;;9.53;50.92
79413;BME280;68863;49.528;11.010;2024-02-23T03:33:12;96367.88;;;9.71;50.39
79413;BME280;68863;49.528;11.010;2024-02-23T03:34:12;96358.00;;;9.29;50.74
79413;BME280;68863;49.528;11.010;2024-02-23T03:35:13;96351.28;;;9.44;51.13
79413;BME280;68863;49.528;11.010;2024-02-23T03:36:13;96355.38;;;9.47;50.44
79413;BME280;68863;49.528;11.010;2024-02-23T03:37:13;96350.34;;;9.36;51.07
79413;BME280;68863;49.528;11.010;2024-02-23T03:38:14;96363.59;;;9.70;50.40
79413;BME280;68863;49.528;11.010;2024-02-23T03:39:14;96365.69;;;9.66;50.40
79413;BME280;68863;49.528;11.010;2024-02-23T03:40:15;96365.25;;;9.53;50.55
79413;BME280;68863;49.528;11.010;2024-02-23T03:41:18;96372.63;;;9.40;51.02
79413;BME280;68863;49.528;11.010;2024-02-23T03:42:18;96374.88;;;9.35;51.02
79413;BME280;68863;49.528;11.010;2024-02-23T03:43:19;96379.53;;;9.58;50.72
79413;BME280;68863;49.528;11.010;2024-02-23T03:44:19;96387.81;;;9.36;51.10
79413;BME280;68863;49.528;11.010;2024-02-23T03:45:19;96378.94;;;9.47;50.63
79413;BME280;68863;49.528;11.010;2024-02-23T03:46:20;96379.00;;;9.55;50.64
79413;BME280;68863;49.528;11.010;2024-02-23T03:47:21;96374.44;;;9.75;50.12
79413;BME280;68863;49.528;11.010;2024-02-23T03:48:21;96372.31;;;9.52;50.39
79413;BME280;68863;49.528;11.010;2024-02-23T03:49:22;96371.09;;;9.82;49.69
79413;BME280;68863;49.528;11.010;2024-02-23T03:50:22;96369.53;;;9.72;50.39
79413;BME280;68863;49.528;11.010;2024-02-23T03:51:23;96367.06;;;9.88;49.63
79413;BME280;68863;49.528;11.010;2024-02-23T03:52:23;96375.94;;;9.42;50.27
79413;BME280;68863;49.528;11.010;2024-02-23T03:53:23;96370.69;;;9.24;50.90
79413;BME280;68863;49.528;11.010;2024-02-23T03:54:24;96378.94;;;9.29;50.85
79413;BME280;68863;49.528;11.010;2024-02-23T03:55:24;96379.09;;;9.63;50.47
79413;BME280;68863;49.528;11.010;2024-02-23T03:56:24;96383.16;;;9.75;49.99
79413;BME280;68863;49.528;11.010;2024-02-23T03:57:25;96393.19;;;9.62;50.25
79413;BME280;68863;49.528;11.010;2024-02-23T03:58:25;96393.69;;;9.66;50.39
79413;BME280;68863;49.528;11.010;2024-02-23T03:59:25;96389.00;;;9.87;49.68
79413;BME280;68863;49.528;11.010;2024-02-23T04:00:26;96384.50;;;9.62;49.80
79413;BME280;68863;49.528;11.010;2024-02-23T04:01:26;96382.09;;;9.86;49.54
79413;BME280;68863;49.528;11.010;2024-02-23T04:02:26;96384.25;;;9.91;49.41
79413;BME280;68863;49.528;11.010;2024-02-23T04:03:27;96384.41;;;9.53;49.80
79413;BME280;68863;49.528;11.010;2024-02-23T04:04:27;96384.03;;;9.48;49.86
79413;BME280;68863;49.528;11.010;2024-02-23T04:05:28;96376.03;;;9.86;49.47
79413;BME280;68863;49.528;11.010;2024-02-23T04:06:28;96377.53;;;9.70;48.99
79413;BME280;68863;49.528;11.010;2024-02-23T04:07:28;96377.19;;;9.83;49.01
79413;BME280;68863;49.528;11.010;2024-02-23T04:08:29;96379.34;;;9.52;49.59
79413;BME280;68863;49.528;11.010;2024-02-23T04:09:29;96378.88;;;9.56;49.04
79413;BME280;68863;49.528;11.010;2024-02-23T04:10:29;96377.97;;;9.30;50.11
79413;BME280;68863;49.528;11.010;2024-02-23T04:11:31;96375.66;;;9.63;49.63
79413;BME280;68863;49.528;11.010;2024-02-23T04:12:31;96373.34;;;9.42;50.28
79413;BME280;68863;49.528;11.010;2024-02-23T04:13:31;96367.22;;;9.69;49.47
79413;BME280;68863;49.528;11.010;2024-02-23T04:14:32;96371.81;;;9.39;49.89
79413;BME280;68863;49.528;11.010;2024-02-23T04:15:34;96370.50;;;9.71;49.53
79413;BME280;68863;49.528;11.010;2024-02-23T04:16:34;96363.47;;;9.71;49.36
79413;BME280;68863;49.528;11.010;2024-02-23T04:17:34;96373.34;;;9.60;49.73
79413;BME280;68863;49.528;11.010;2024-02-23T04:18:35;96362.41;;;9.28;50.26
79413;BME280;68863;49.528;11.010;2024-02-23T04:19:35;96370.75;;;9.32;49.88
79413;BME280;68863;49.528;11.010;2024-02-23T04:20:35;96368.00;;;9.51;49.87
79413;BME280;68863;49.528;11.010;2024-02-23T04:21:36;96363.53;;;9.79;49.05
79413;BME280;68863;49.528;11.010;2024-02-23T04:22:36;96371.63;;;9.68;48.83
79413;BME280;68863;49.528;11.010;2024-02-23T04:23:37;96374.16;;;9.42;50.00
79413;BME280;68863;49.528;11.010;2024-02-23T04:24:38;96372.81;;;9.38;49.60
79413;BME280;68863;49.528;11.010;2024-02-23T04:25:38;96384.13;;;9.56;49.49
79413;BME280;68863;49.528;11.010;2024-02-23T04:26:39;96381.63;;;9.55;49.24
79413;BME280;68863;49.528;11.010;2024-02-23T04:27:39;96386.91;;;9.73;48.87
79413;BME280;68863;49.528;11.010;2024-02-23T04:28:40;96388.75;;;9.63;48.90
79413;BME280;68863;49.528;11.010;2024-02-23T04:29:41;96397.63;;;9.34;49.97
79413;BME280;68863;49.528;11.010;2024-02-23T04:30:41;96387.03;;;9.53;49.52
79413;BME280;68863;49.528;11.010;2024-02-23T04:31:41;96394.19;;;9.51;50.02
79413;BME280;68863;49.528;11.010;2024-02-23T04:32:42;96403.72;;;9.52;49.34
79413;BME280;68863;49.528;11.010;2024-02-23T04:33:42;96412.09;;;9.38;49.71
79413;BME280;68863;49.528;11.010;2024-02-23T04:34:43;96409.59;;;9.64;49.39
79413;BME280;68863;49.528;11.010;2024-02-23T04:35:43;96411.78;;;9.41;49.56
79413;BME280;68863;49.528;11.010;2024-02-23T04:36:43;96412.03;;;9.48;49.72
79413;BME280;68863;49.528;11.010;2024-02-23T04:37:44;96406.16;;;9.36;49.62
79413;BME280;68863;49.528;11.010;2024-02-23T04:38:45;96416.22;;;8.86;50.29
79413;BME280;68863;49.528;11.010;2024-02-23T04:39:45;96410.03;;;9.32;50.00
79413;BME280;68863;49.528;11.010;2024-02-23T04:40:46;96407.28;;;9.33;49.28
79413;BME280;68863;49.528;11.010;2024-02-23T04:41:46;96407.09;;;9.45;50.04
79413;BME280;68863;49.528;11.010;2024-02-23T04:42:46;96413.53;;;9.50;49.32
79413;BME280;68863;49.528;11.010;2024-02-23T04:43:47;96411.19;;;9.47;49.13
79413;BME280;68863;49.528;11.010;2024-02-23T04:44:48;96416.63;;;9.36;49.72
79413;BME280;68863;49.528;11.010;2024-02-23T04:45:49;96422.94;;;9.16;50.46
79413;BME280;68863;49.528;11.010;2024-02-23T04:46:50;96416.41;;;9.29;50.10
79413;BME280;68863;49.528;11.010;2024-02-23T04:47:50;96419.16;;;9.28;50.01
79413;BME280;68863;49.528;11.010;2024-02-23T04:48:50;96416.16;;;9.23;50.27
79413;BME280;68863;49.528;11.010;2024-02-23T04:49:51;96412.25;;;9.54;49.29
79413;BME280;68863;49.528;11.010;2024-02-23T04:50:51;96418.38;;;9.45;49.41
79413;BME280;68863;49.528;11.010;2024-02-23T04:51:52;96414.81;;;9.64;49.42
79413;BME280;68863;49.528;11.010;2024-02-23T04:52:53;96423.72;;;9.53;49.30
79413;BME280;68863;49.528;11.010;2024-02-23T04:53:53;96427.47;;;9.69;49.27
79413;BME280;68863;49.528;11.010;2024-02-23T04:54:54;96433.31;;;9.80;48.70
79413;BME280;68863;49.528;11.010;2024-02-23T04:55:54;96434.09;;;9.45;49.08
79413;BME280;68863;49.528;11.010;2024-02-23T04:56:54;96430.94;;;9.42;49.39
79413;BME280;68863;49.528;11.010;2024-02-23T04:57:56;96433.94;;;9.47;49.53
79413;BME280;68863;49.528;11.010;2024-02-23T04:58:56;96441.66;;;9.48;49.29
79413;BME280;68863;49.528;11.010;2024-02-23T04:59:57;96443.97;;;9.51;49.33
79413;BME280;68863;49.528;11.010;2024-02-23T05:00:57;96448.19;;;9.62;48.98
79413;BME280;68863;49.528;11.010;2024-02-23T05:01:58;96456.22;;;9.61;49.06
79413;BME280;68863;49.528;11.010;2024-02-23T05:03:00;96451.75;;;9.16;49.99
79413;BME280;68863;49.528;11.010;2024-02-23T05:04:03;96459.78;;;9.32;50.34
79413;BME280;68863;49.528;11.010;2024-02-23T05:05:04;96460.13;;;9.47;49.90
79413;BME280;68863;49.528;11.010;2024-02-23T05:06:04;96456.16;;;9.15;49.78
79413;BME280;68863;49.528;11.010;2024-02-23T05:07:05;96455.91;;;9.36;49.63
79413;BME280;68863;49.528;11.010;2024-02-23T05:08:05;96452.06;;;9.58;49.21
79413;BME280;68863;49.528;11.010;2024-02-23T05:09:06;96451.63;;;9.63;49.11
79413;BME280;68863;49.528;11.010;2024-02-23T05:10:09;96448.34;;;9.61;49.25
79413;BME280;68863;49.528;11.010;2024-02-23T05:11:10;96450.91;;;9.70;49.20
79413;BME280;68863;49.528;11.010;2024-02-23T05:12:10;96450.06;;;9.70;49.04
79413;BME280;68863;49.528;11.010;2024-02-23T05:13:10;96447.94;;;9.83;48.49
79413;BME280;68863;49.528;11.010;2024-02-23T05:14:11;96442.13;;;9.62;48.92
79413;BME280;68863;49.528;11.010;2024-02-23T05:15:11;96439.31;;;9.73;48.34
79413;BME280;68863;49.528;11.010;2024-02-23T05:16:13;96435.09;;;9.44;49.48
79413;BME280;68863;49.528;11.010;2024-02-23T05:17:14;96428.41;;;9.50;49.74
79413;BME280;68863;49.528;11.010;2024-02-23T05:18:14;96426.41;;;9.62;49.22
79413;BME280;68863;49.528;11.010;2024-02-23T05:19:15;96441.41;;;9.42;49.91